sensor_id;sensor_type;location;lat;lon;timestamp;temperature;humidity
21244;DHT22;10780;50.942;4.028;2023-04-01T00:01:59;10.20;99.90
21244;DHT22;10780;50.942;4.028;2023-04-01T00:04:24;10.20;99.90
21244;DHT22;10780;50.942;4.028;2023-04-01T00:06:50;10.20;99.90
21244;DHT22;10780;50.942;4.028;2023-04-01T00:09:17;10.20;99.90
21244;DHT22;10780;50.942;4.028;2023-04-01T00:11:43;10.20;99.90
21244;DHT22;10780;50.942;4.028;2023-04-01T00:14:11;10.20;99.90
21244;DHT22;10780;50.942;4.028;2023-04-01T00:16:37;10.20;99.90
21244;DHT22;10780;50.942;4.028;2023-04-01T00:19:03;10.20;99.90
21244;DHT22;10780;50.942;4.028;2023-04-01T00:21:29;10.20;99.90
21244;DHT22;10780;50.942;4.028;2023-04-01T00:23:54;10.10;99.90
21244;DHT22;10780;50.942;4.028;2023-04-01T00:26:21;10.20;99.90
21244;DHT22;10780;50.942;4.028;2023-04-01T00:28:47;10.10;99.90
21244;DHT22;10780;50.942;4.028;2023-04-01T00:31:14;10.20;99.90
21244;DHT22;10780;50.942;4.028;2023-04-01T00:33:40;10.10;99.90
21244;DHT22;10780;50.942;4.028;2023-04-01T00:36:20;10.20;99.90
21244;DHT22;10780;50.942;4.028;2023-04-01T00:38:47;10.10;99.90
21244;DHT22;10780;50.942;4.028;2023-04-01T00:41:13;10.10;99.90
21244;DHT22;10780;50.942;4.028;2023-04-01T00:43:41;10.10;99.90
21244;DHT22;10780;50.942;4.028;2023-04-01T00:46:07;10.10;99.90
21244;DHT22;10780;50.942;4.028;2023-04-01T00:48:36;10.10;99.90
21244;DHT22;10780;50.942;4.028;2023-04-01T00:51:09;10.10;99.90
21244;DHT22;10780;50.942;4.028;2023-04-01T00:53:41;10.10;99.90
21244;DHT22;10780;50.942;4.028;2023-04-01T00:56:12;10.10;99.90
21244;DHT22;10780;50.942;4.028;2023-04-01T00:58:43;10.10;99.90
21244;DHT22;10780;50.942;4.028;2023-04-01T01:01:09;10.20;99.90
21244;DHT22;10780;50.942;4.028;2023-04-01T01:03:35;10.10;99.90
21244;DHT22;10780;50.942;4.028;2023-04-01T01:11:48;10.20;99.90
21244;DHT22;10780;50.942;4.028;2023-04-01T01:14:28;10.10;99.90
21244;DHT22;10780;50.942;4.028;2023-04-01T01:31:20;10.00;99.90
21244;DHT22;10780;50.942;4.028;2023-04-01T01:34:20;10.00;99.90
21244;DHT22;10780;50.942;4.028;2023-04-01T01:36:54;10.00;99.90
21244;DHT22;10780;50.942;4.028;2023-04-01T01:39:26;9.90;99.90
21244;DHT22;10780;50.942;4.028;2023-04-01T01:41:56;9.90;99.90
21244;DHT22;10780;50.942;4.028;2023-04-01T01:44:24;9.80;99.90
21244;DHT22;10780;50.942;4.028;2023-04-01T01:46:52;9.80;99.90
21244;DHT22;10780;50.942;4.028;2023-04-01T01:49:18;9.80;99.90
21244;DHT22;10780;50.942;4.028;2023-04-01T01:51:45;9.80;99.90
21244;DHT22;10780;50.942;4.028;2023-04-01T01:54:17;9.80;99.90
21244;DHT22;10780;50.942;4.028;2023-04-01T01:56:46;9.80;99.90
21244;DHT22;10780;50.942;4.028;2023-04-01T01:59:14;9.80;99.90
21244;DHT22;10780;50.942;4.028;2023-04-01T02:01:44;9.80;99.90
21244;DHT22;10780;50.942;4.028;2023-04-01T02:04:12;9.80;99.90
21244;DHT22;10780;50.942;4.028;2023-04-01T02:06:41;9.70;99.90
21244;DHT22;10780;50.942;4.028;2023-04-01T02:09:10;9.80;99.90
21244;DHT22;10780;50.942;4.028;2023-04-01T02:11:38;9.80;99.90
21244;DHT22;10780;50.942;4.028;2023-04-01T02:14:13;9.80;99.90
21244;DHT22;10780;50.942;4.028;2023-04-01T02:16:55;9.70;99.90
21244;DHT22;10780;50.942;4.028;2023-04-01T02:19:27;9.70;99.90
21244;DHT22;10780;50.942;4.028;2023-04-01T02:21:58;9.80;99.90
21244;DHT22;10780;50.942;4.028;2023-04-01T02:24:27;9.80;99.90
21244;DHT22;10780;50.942;4.028;2023-04-01T02:26:53;9.80;99.90
21244;DHT22;10780;50.942;4.028;2023-04-01T02:29:21;9.80;99.90
21244;DHT22;10780;50.942;4.028;2023-04-01T02:31:47;9.80;99.90
21244;DHT22;10780;50.942;4.028;2023-04-01T02:34:14;9.80;99.90
21244;DHT22;10780;50.942;4.028;2023-04-01T02:36:41;9.80;99.90
21244;DHT22;10780;50.942;4.028;2023-04-01T02:39:07;9.80;99.90
21244;DHT22;10780;50.942;4.028;2023-04-01T02:41:39;9.80;99.90
21244;DHT22;10780;50.942;4.028;2023-04-01T02:44:06;9.80;99.90
21244;DHT22;10780;50.942;4.028;2023-04-01T02:46:32;9.80;99.90
21244;DHT22;10780;50.942;4.028;2023-04-01T02:48:58;9.80;99.90
21244;DHT22;10780;50.942;4.028;2023-04-01T02:51:25;9.80;99.90
21244;DHT22;10780;50.942;4.028;2023-04-01T02:53:50;9.80;99.90
21244;DHT22;10780;50.942;4.028;2023-04-01T02:56:16;9.80;99.90
21244;DHT22;10780;50.942;4.028;2023-04-01T02:58:42;9.80;99.90
21244;DHT22;10780;50.942;4.028;2023-04-01T03:01:07;9.80;99.90
21244;DHT22;10780;50.942;4.028;2023-04-01T03:03:33;9.80;99.90
21244;DHT22;10780;50.942;4.028;2023-04-01T03:06:11;9.90;99.90
21244;DHT22;10780;50.942;4.028;2023-04-01T03:08:37;9.90;99.90
21244;DHT22;10780;50.942;4.028;2023-04-01T03:11:03;9.90;99.90
21244;DHT22;10780;50.942;4.028;2023-04-01T03:13:29;9.90;99.90
21244;DHT22;10780;50.942;4.028;2023-04-01T03:15:55;10.00;99.90
21244;DHT22;10780;50.942;4.028;2023-04-01T03:18:21;10.10;99.90
21244;DHT22;10780;50.942;4.028;2023-04-01T03:20:46;10.10;99.90
21244;DHT22;10780;50.942;4.028;2023-04-01T03:23:13;10.10;99.90
21244;DHT22;10780;50.942;4.028;2023-04-01T03:25:38;10.10;99.90
21244;DHT22;10780;50.942;4.028;2023-04-01T03:28:04;10.00;99.90
21244;DHT22;10780;50.942;4.028;2023-04-01T03:30:30;10.00;99.90
21244;DHT22;10780;50.942;4.028;2023-04-01T03:32:57;10.10;99.90
21244;DHT22;10780;50.942;4.028;2023-04-01T03:35:23;10.00;99.90
21244;DHT22;10780;50.942;4.028;2023-04-01T03:37:51;10.00;99.90
21244;DHT22;10780;50.942;4.028;2023-04-01T03:40:17;10.00;99.90
21244;DHT22;10780;50.942;4.028;2023-04-01T03:42:43;10.00;99.90
21244;DHT22;10780;50.942;4.028;2023-04-01T03:45:09;10.00;99.90
21244;DHT22;10780;50.942;4.028;2023-04-01T03:47:35;9.90;99.90
21244;DHT22;10780;50.942;4.028;2023-04-01T03:50:01;9.90;99.90
21244;DHT22;10780;50.942;4.028;2023-04-01T03:52:27;9.90;99.90
21244;DHT22;10780;50.942;4.028;2023-04-01T03:54:52;9.90;99.90
21244;DHT22;10780;50.942;4.028;2023-04-01T03:57:18;9.80;99.90
21244;DHT22;10780;50.942;4.028;2023-04-01T03:59:43;9.80;99.90
21244;DHT22;10780;50.942;4.028;2023-04-01T04:02:09;9.80;99.90
21244;DHT22;10780;50.942;4.028;2023-04-01T04:04:35;9.70;99.90
21244;DHT22;10780;50.942;4.028;2023-04-01T04:07:01;9.70;99.90
21244;DHT22;10780;50.942;4.028;2023-04-01T04:09:26;9.70;99.90
21244;DHT22;10780;50.942;4.028;2023-04-01T04:11:52;9.70;99.90
21244;DHT22;10780;50.942;4.028;2023-04-01T04:14:18;9.60;99.90
21244;DHT22;10780;50.942;4.028;2023-04-01T04:16:44;9.60;99.90
21244;DHT22;10780;50.942;4.028;2023-04-01T04:19:09;9.70;99.90
21244;DHT22;10780;50.942;4.028;2023-04-01T04:21:35;9.70;99.90
21244;DHT22;10780;50.942;4.028;2023-04-01T04:24:01;9.70;99.90
21244;DHT22;10780;50.942;4.028;2023-04-01T04:26:27;9.70;99.90
21244;DHT22;10780;50.942;4.028;2023-04-01T04:28:54;9.70;99.90
21244;DHT22;10780;50.942;4.028;2023-04-01T04:31:24;9.70;99.90
21244;DHT22;10780;50.942;4.028;2023-04-01T04:33:50;9.70;99.90
21244;DHT22;10780;50.942;4.028;2023-04-01T04:36:17;9.70;99.90
21244;DHT22;10780;50.942;4.028;2023-04-01T04:38:43;9.70;99.90
21244;DHT22;10780;50.942;4.028;2023-04-01T04:41:16;9.70;99.90
21244;DHT22;10780;50.942;4.028;2023-04-01T04:43:52;9.70;99.90
21244;DHT22;10780;50.942;4.028;2023-04-01T04:46:18;9.70;99.90
21244;DHT22;10780;50.942;4.028;2023-04-01T04:48:44;9.70;99.90
21244;DHT22;10780;50.942;4.028;2023-04-01T04:51:13;9.80;99.90
21244;DHT22;10780;50.942;4.028;2023-04-01T04:53:40;9.70;99.90
21244;DHT22;10780;50.942;4.028;2023-04-01T04:56:05;9.80;99.90
21244;DHT22;10780;50.942;4.028;2023-04-01T04:58:31;9.80;99.90
21244;DHT22;10780;50.942;4.028;2023-04-01T05:00:57;9.70;99.90
21244;DHT22;10780;50.942;4.028;2023-04-01T05:03:22;9.70;99.90
21244;DHT22;10780;50.942;4.028;2023-04-01T05:05:53;9.60;99.90
21244;DHT22;10780;50.942;4.028;2023-04-01T05:08:19;9.70;99.90
21244;DHT22;10780;50.942;4.028;2023-04-01T05:10:46;9.60;99.90
21244;DHT22;10780;50.942;4.028;2023-04-01T05:13:11;9.60;99.90
21244;DHT22;10780;50.942;4.028;2023-04-01T05:15:37;9.60;99.90
21244;DHT22;10780;50.942;4.028;2023-04-01T05:18:03;9.60;99.90
21244;DHT22;10780;50.942;4.028;2023-04-01T05:20:29;9.60;99.90
21244;DHT22;10780;50.942;4.028;2023-04-01T05:22:58;9.60;99.90
21244;DHT22;10780;50.942;4.028;2023-04-01T05:25:24;9.60;99.90
21244;DHT22;10780;50.942;4.028;2023-04-01T05:27:50;9.60;99.90
21244;DHT22;10780;50.942;4.028;2023-04-01T05:30:16;9.60;99.90
21244;DHT22;10780;50.942;4.028;2023-04-01T05:32:41;9.60;99.90
21244;DHT22;10780;50.942;4.028;2023-04-01T05:35:08;9.60;99.90
21244;DHT22;10780;50.942;4.028;2023-04-01T05:37:35;9.60;99.90
21244;DHT22;10780;50.942;4.028;2023-04-01T05:40:01;9.60;99.90
21244;DHT22;10780;50.942;4.028;2023-04-01T05:42:26;9.60;99.90
21244;DHT22;10780;50.942;4.028;2023-04-01T05:44:52;9.60;99.90
21244;DHT22;10780;50.942;4.028;2023-04-01T05:47:18;9.60;99.90
21244;DHT22;10780;50.942;4.028;2023-04-01T05:49:43;9.70;99.90
21244;DHT22;10780;50.942;4.028;2023-04-01T05:52:09;9.70;99.90
21244;DHT22;10780;50.942;4.028;2023-04-01T05:54:35;9.70;99.90
21244;DHT22;10780;50.942;4.028;2023-04-01T05:57:01;9.70;99.90
21244;DHT22;10780;50.942;4.028;2023-04-01T05:59:26;9.70;99.90
21244;DHT22;10780;50.942;4.028;2023-04-01T06:01:52;9.70;99.90
21244;DHT22;10780;50.942;4.028;2023-04-01T06:04:18;9.70;99.90
21244;DHT22;10780;50.942;4.028;2023-04-01T06:06:44;9.70;99.90
21244;DHT22;10780;50.942;4.028;2023-04-01T06:09:26;9.70;99.90
21244;DHT22;10780;50.942;4.028;2023-04-01T06:15:02;9.60;99.90
21244;DHT22;10780;50.942;4.028;2023-04-01T06:18:14;9.60;99.90
21244;DHT22;10780;50.942;4.028;2023-04-01T06:21:02;9.60;99.90
21244;DHT22;10780;50.942;4.028;2023-04-01T06:23:52;9.60;99.90
21244;DHT22;10780;50.942;4.028;2023-04-01T06:26:34;9.60;99.90
21244;DHT22;10780;50.942;4.028;2023-04-01T06:32:16;9.60;99.90
21244;DHT22;10780;50.942;4.028;2023-04-01T06:43:08;9.70;99.90
21244;DHT22;10780;50.942;4.028;2023-04-01T06:54:33;9.80;99.90
21244;DHT22;10780;50.942;4.028;2023-04-01T06:57:33;9.70;99.90
21244;DHT22;10780;50.942;4.028;2023-04-01T07:00:01;9.70;99.90
21244;DHT22;10780;50.942;4.028;2023-04-01T07:02:41;9.70;99.90
21244;DHT22;10780;50.942;4.028;2023-04-01T07:05:11;9.70;99.90
21244;DHT22;10780;50.942;4.028;2023-04-01T07:07:48;9.70;99.90
21244;DHT22;10780;50.942;4.028;2023-04-01T07:10:35;9.70;99.90
21244;DHT22;10780;50.942;4.028;2023-04-01T07:13:18;9.70;99.90
21244;DHT22;10780;50.942;4.028;2023-04-01T07:15:56;9.70;99.90
21244;DHT22;10780;50.942;4.028;2023-04-01T07:18:40;9.60;99.90
21244;DHT22;10780;50.942;4.028;2023-04-01T07:21:13;9.60;99.90
21244;DHT22;10780;50.942;4.028;2023-04-01T07:23:44;9.70;99.90
21244;DHT22;10780;50.942;4.028;2023-04-01T07:26:22;9.70;99.90
21244;DHT22;10780;50.942;4.028;2023-04-01T07:28:50;9.70;99.90
21244;DHT22;10780;50.942;4.028;2023-04-01T07:34:09;9.70;99.90
21244;DHT22;10780;50.942;4.028;2023-04-01T07:37:08;9.70;99.90
21244;DHT22;10780;50.942;4.028;2023-04-01T07:42:52;9.70;99.90
21244;DHT22;10780;50.942;4.028;2023-04-01T07:51:03;9.80;99.90
21244;DHT22;10780;50.942;4.028;2023-04-01T07:59:18;10.10;99.90
21244;DHT22;10780;50.942;4.028;2023-04-01T08:01:49;10.00;99.90
21244;DHT22;10780;50.942;4.028;2023-04-01T08:06:53;10.10;99.90
21244;DHT22;10780;50.942;4.028;2023-04-01T08:09:57;10.10;99.90
21244;DHT22;10780;50.942;4.028;2023-04-01T08:12:40;10.10;99.90
21244;DHT22;10780;50.942;4.028;2023-04-01T08:15:49;10.10;99.90
21244;DHT22;10780;50.942;4.028;2023-04-01T08:21:25;10.10;99.90
21244;DHT22;10780;50.942;4.028;2023-04-01T08:23:56;10.00;99.90
21244;DHT22;10780;50.942;4.028;2023-04-01T08:28:59;10.10;99.90
21244;DHT22;10780;50.942;4.028;2023-04-01T08:31:38;10.00;99.90
21244;DHT22;10780;50.942;4.028;2023-04-01T08:34:14;10.00;99.90
21244;DHT22;10780;50.942;4.028;2023-04-01T08:36:50;10.00;99.90
21244;DHT22;10780;50.942;4.028;2023-04-01T08:39:30;10.10;99.90
21244;DHT22;10780;50.942;4.028;2023-04-01T08:42:22;10.10;99.90
21244;DHT22;10780;50.942;4.028;2023-04-01T08:45:26;10.10;99.90
21244;DHT22;10780;50.942;4.028;2023-04-01T08:54:15;10.30;99.90
21244;DHT22;10780;50.942;4.028;2023-04-01T09:00:41;10.30;99.90
21244;DHT22;10780;50.942;4.028;2023-04-01T09:05:34;10.30;99.90
21244;DHT22;10780;50.942;4.028;2023-04-01T09:08:33;10.20;99.90
21244;DHT22;10780;50.942;4.028;2023-04-01T09:11:07;10.20;99.90
21244;DHT22;10780;50.942;4.028;2023-04-01T09:13:49;10.10;99.90
21244;DHT22;10780;50.942;4.028;2023-04-01T09:27:02;10.10;99.90
21244;DHT22;10780;50.942;4.028;2023-04-01T09:29:45;10.10;99.90
21244;DHT22;10780;50.942;4.028;2023-04-01T09:35:23;10.30;99.90
21244;DHT22;10780;50.942;4.028;2023-04-01T09:40:48;10.40;99.90
21244;DHT22;10780;50.942;4.028;2023-04-01T10:01:51;11.00;99.90
21244;DHT22;10780;50.942;4.028;2023-04-01T10:28:53;10.70;99.90
21244;DHT22;10780;50.942;4.028;2023-04-01T10:37:24;10.80;99.90
21244;DHT22;10780;50.942;4.028;2023-04-01T10:40:12;11.00;99.90
21244;DHT22;10780;50.942;4.028;2023-04-01T10:54:53;11.00;99.90
21244;DHT22;10780;50.942;4.028;2023-04-01T11:12:19;11.80;99.90
21244;DHT22;10780;50.942;4.028;2023-04-01T11:20:27;11.60;99.90
21244;DHT22;10780;50.942;4.028;2023-04-01T11:28:34;11.40;99.90
21244;DHT22;10780;50.942;4.028;2023-04-01T11:31:29;11.30;99.90
21244;DHT22;10780;50.942;4.028;2023-04-01T11:42:48;11.20;99.90
21244;DHT22;10780;50.942;4.028;2023-04-01T11:53:15;11.40;99.90
21244;DHT22;10780;50.942;4.028;2023-04-01T12:01:14;11.30;99.90
21244;DHT22;10780;50.942;4.028;2023-04-01T12:17:40;11.10;99.90
21244;DHT22;10780;50.942;4.028;2023-04-01T12:36:48;10.80;99.90
21244;DHT22;10780;50.942;4.028;2023-04-01T12:47:43;10.60;99.90
21244;DHT22;10780;50.942;4.028;2023-04-01T13:20:04;10.30;99.90
21244;DHT22;10780;50.942;4.028;2023-04-01T13:23:03;10.20;99.90
21244;DHT22;10780;50.942;4.028;2023-04-01T13:28:40;10.20;99.90
21244;DHT22;10780;50.942;4.028;2023-04-01T13:33:47;10.40;99.90
21244;DHT22;10780;50.942;4.028;2023-04-01T13:36:44;10.60;99.90
21244;DHT22;10780;50.942;4.028;2023-04-01T13:45:00;10.70;99.90
21244;DHT22;10780;50.942;4.028;2023-04-01T13:50:17;10.60;99.90
21244;DHT22;10780;50.942;4.028;2023-04-01T13:56:35;10.40;99.90
21244;DHT22;10780;50.942;4.028;2023-04-01T14:04:47;10.10;99.90
21244;DHT22;10780;50.942;4.028;2023-04-01T14:10:42;10.10;99.90
21244;DHT22;10780;50.942;4.028;2023-04-01T14:14:13;10.20;99.90
21244;DHT22;10780;50.942;4.028;2023-04-01T14:16:47;10.20;99.90
21244;DHT22;10780;50.942;4.028;2023-04-01T14:22:25;10.20;99.90
21244;DHT22;10780;50.942;4.028;2023-04-01T14:25:06;10.10;99.90
21244;DHT22;10780;50.942;4.028;2023-04-01T14:30:35;10.10;99.90
21244;DHT22;10780;50.942;4.028;2023-04-01T14:41:48;10.40;99.90
21244;DHT22;10780;50.942;4.028;2023-04-01T14:47:28;10.40;99.90
21244;DHT22;10780;50.942;4.028;2023-04-01T14:50:06;10.60;99.90
21244;DHT22;10780;50.942;4.028;2023-04-01T14:52:37;10.50;99.90
21244;DHT22;10780;50.942;4.028;2023-04-01T15:03:32;10.90;99.90
21244;DHT22;10780;50.942;4.028;2023-04-01T15:09:06;10.70;99.90
21244;DHT22;10780;50.942;4.028;2023-04-01T15:16:49;10.60;99.90
21244;DHT22;10780;50.942;4.028;2023-04-01T15:19:29;10.60;99.90
21244;DHT22;10780;50.942;4.028;2023-04-01T15:28:04;10.50;99.90
21244;DHT22;10780;50.942;4.028;2023-04-01T15:36:35;10.30;99.90
21244;DHT22;10780;50.942;4.028;2023-04-01T15:41:59;10.20;99.90
21244;DHT22;10780;50.942;4.028;2023-04-01T15:46:57;9.90;99.90
21244;DHT22;10780;50.942;4.028;2023-04-01T15:49:34;9.90;99.90
21244;DHT22;10780;50.942;4.028;2023-04-01T15:52:15;9.90;99.90
21244;DHT22;10780;50.942;4.028;2023-04-01T15:55:05;10.00;99.90
21244;DHT22;10780;50.942;4.028;2023-04-01T16:11:37;10.00;99.90
21244;DHT22;10780;50.942;4.028;2023-04-01T16:17:25;10.00;99.90
21244;DHT22;10780;50.942;4.028;2023-04-01T16:22:39;9.90;99.90
21244;DHT22;10780;50.942;4.028;2023-04-01T16:31:09;10.10;99.90
21244;DHT22;10780;50.942;4.028;2023-04-01T16:33:57;10.00;99.90
21244;DHT22;10780;50.942;4.028;2023-04-01T16:41:26;10.00;99.90
21244;DHT22;10780;50.942;4.028;2023-04-01T16:44:19;10.00;99.90
21244;DHT22;10780;50.942;4.028;2023-04-01T16:49:37;9.90;99.90
21244;DHT22;10780;50.942;4.028;2023-04-01T16:54:47;9.90;99.90
21244;DHT22;10780;50.942;4.028;2023-04-01T16:57:26;9.90;99.90
21244;DHT22;10780;50.942;4.028;2023-04-01T17:02:25;9.70;99.90
21244;DHT22;10780;50.942;4.028;2023-04-01T17:05:03;9.80;99.90
21244;DHT22;10780;50.942;4.028;2023-04-01T17:10:52;9.70;99.90
21244;DHT22;10780;50.942;4.028;2023-04-01T17:13:29;9.70;99.90
21244;DHT22;10780;50.942;4.028;2023-04-01T17:16:11;9.70;99.90
21244;DHT22;10780;50.942;4.028;2023-04-01T17:21:15;9.50;99.90
21244;DHT22;10780;50.942;4.028;2023-04-01T17:27:22;9.50;99.90
21244;DHT22;10780;50.942;4.028;2023-04-01T17:33:25;9.50;99.90
21244;DHT22;10780;50.942;4.028;2023-04-01T17:43:45;9.40;99.90
21244;DHT22;10780;50.942;4.028;2023-04-01T18:06:08;9.20;99.90
21244;DHT22;10780;50.942;4.028;2023-04-01T18:27:44;9.10;99.90
21244;DHT22;10780;50.942;4.028;2023-04-01T18:30:18;9.10;99.90
21244;DHT22;10780;50.942;4.028;2023-04-01T18:32:59;9.10;99.90
21244;DHT22;10780;50.942;4.028;2023-04-01T18:38:13;9.10;99.90
21244;DHT22;10780;50.942;4.028;2023-04-01T18:40:50;9.10;99.90
21244;DHT22;10780;50.942;4.028;2023-04-01T18:46:12;9.00;99.90
21244;DHT22;10780;50.942;4.028;2023-04-01T18:49:11;9.00;99.90
21244;DHT22;10780;50.942;4.028;2023-04-01T18:51:47;8.90;99.90
21244;DHT22;10780;50.942;4.028;2023-04-01T18:54:32;9.00;99.90
21244;DHT22;10780;50.942;4.028;2023-04-01T18:57:04;9.00;99.90
21244;DHT22;10780;50.942;4.028;2023-04-01T18:59:45;9.00;99.90
21244;DHT22;10780;50.942;4.028;2023-04-01T19:02:48;8.90;99.90
21244;DHT22;10780;50.942;4.028;2023-04-01T19:05:25;8.90;99.90
21244;DHT22;10780;50.942;4.028;2023-04-01T19:07:54;9.00;99.90
21244;DHT22;10780;50.942;4.028;2023-04-01T19:11:02;9.00;99.90
21244;DHT22;10780;50.942;4.028;2023-04-01T19:14:12;9.00;99.90
21244;DHT22;10780;50.942;4.028;2023-04-01T19:16:58;9.00;99.90
21244;DHT22;10780;50.942;4.028;2023-04-01T19:27:48;9.00;99.90
21244;DHT22;10780;50.942;4.028;2023-04-01T19:30:37;9.00;99.90
21244;DHT22;10780;50.942;4.028;2023-04-01T19:34:08;9.00;99.90
21244;DHT22;10780;50.942;4.028;2023-04-01T19:36:29;8.90;99.90
21244;DHT22;10780;50.942;4.028;2023-04-01T19:39:11;9.00;99.90
21244;DHT22;10780;50.942;4.028;2023-04-01T19:42:09;9.00;99.90
21244;DHT22;10780;50.942;4.028;2023-04-01T19:52:56;8.90;99.90
21244;DHT22;10780;50.942;4.028;2023-04-01T19:55:48;8.90;99.90
21244;DHT22;10780;50.942;4.028;2023-04-01T20:00:48;9.00;99.90
21244;DHT22;10780;50.942;4.028;2023-04-01T20:05:56;9.00;99.90
21244;DHT22;10780;50.942;4.028;2023-04-01T20:14:15;8.90;99.90
21244;DHT22;10780;50.942;4.028;2023-04-01T20:22:31;8.90;99.90
21244;DHT22;10780;50.942;4.028;2023-04-01T20:25:26;9.00;99.90
21244;DHT22;10780;50.942;4.028;2023-04-01T20:30:53;8.90;99.90
21244;DHT22;10780;50.942;4.028;2023-04-01T20:36:24;8.90;99.90
21244;DHT22;10780;50.942;4.028;2023-04-01T20:50:19;8.90;99.90
21244;DHT22;10780;50.942;4.028;2023-04-01T20:53:11;9.00;99.90
21244;DHT22;10780;50.942;4.028;2023-04-01T21:06:41;9.00;99.90
21244;DHT22;10780;50.942;4.028;2023-04-01T21:30:47;9.00;99.90
21244;DHT22;10780;50.942;4.028;2023-04-01T21:33:38;9.00;99.90
21244;DHT22;10780;50.942;4.028;2023-04-01T21:44:54;9.10;99.90
21244;DHT22;10780;50.942;4.028;2023-04-01T21:47:35;9.10;99.90
21244;DHT22;10780;50.942;4.028;2023-04-01T21:55:42;9.00;99.90
21244;DHT22;10780;50.942;4.028;2023-04-01T21:58:39;9.10;99.90
21244;DHT22;10780;50.942;4.028;2023-04-01T22:01:55;9.00;99.90
21244;DHT22;10780;50.942;4.028;2023-04-01T22:04:56;9.10;99.90
21244;DHT22;10780;50.942;4.028;2023-04-01T22:13:10;9.00;99.90
21244;DHT22;10780;50.942;4.028;2023-04-01T22:19:15;9.10;99.90
21244;DHT22;10780;50.942;4.028;2023-04-01T22:24:33;9.10;99.90
21244;DHT22;10780;50.942;4.028;2023-04-01T22:27:09;9.00;99.90
21244;DHT22;10780;50.942;4.028;2023-04-01T22:32:40;9.00;99.90
21244;DHT22;10780;50.942;4.028;2023-04-01T22:48:59;9.00;99.90
21244;DHT22;10780;50.942;4.028;2023-04-01T22:57:00;9.00;99.90
21244;DHT22;10780;50.942;4.028;2023-04-01T23:02:16;9.10;99.90
21244;DHT22;10780;50.942;4.028;2023-04-01T23:04:48;9.00;99.90
21244;DHT22;10780;50.942;4.028;2023-04-01T23:09:47;9.10;99.90
21244;DHT22;10780;50.942;4.028;2023-04-01T23:12:15;9.10;99.90
21244;DHT22;10780;50.942;4.028;2023-04-01T23:14:49;9.20;99.90
21244;DHT22;10780;50.942;4.028;2023-04-01T23:33:30;9.10;99.90
21244;DHT22;10780;50.942;4.028;2023-04-01T23:36:00;9.00;99.90
21244;DHT22;10780;50.942;4.028;2023-04-01T23:38:38;9.10;99.90
21244;DHT22;10780;50.942;4.028;2023-04-01T23:41:07;9.10;99.90
21244;DHT22;10780;50.942;4.028;2023-04-01T23:43:37;9.10;99.90
21244;DHT22;10780;50.942;4.028;2023-04-01T23:46:06;9.10;99.90
21244;DHT22;10780;50.942;4.028;2023-04-01T23:48:38;9.10;99.90
21244;DHT22;10780;50.942;4.028;2023-04-01T23:51:58;9.10;99.90
21244;DHT22;10780;50.942;4.028;2023-04-01T23:54:03;9.10;99.90
21244;DHT22;10780;50.942;4.028;2023-04-01T23:56:42;9.10;99.90
21244;DHT22;10780;50.942;4.028;2023-04-01T23:59:35;9.10;99.90
